sensor_id;sensor_type;location;lat;lon;timestamp;temperature;humidity
9723;DHT22;4900;49.306;8.500;2023-07-08T00:00:21;24.44;41.34
9723;DHT22;4900;49.306;8.500;2023-07-08T00:02:47;24.39;41.42
9723;DHT22;4900;49.306;8.500;2023-07-08T00:05:15;24.32;41.52
9723;DHT22;4900;49.306;8.500;2023-07-08T00:07:41;24.26;41.76
9723;DHT22;4900;49.306;8.500;2023-07-08T00:12:42;24.16;42.19
9723;DHT22;4900;49.306;8.500;2023-07-08T00:15:08;24.10;42.45
9723;DHT22;4900;49.306;8.500;2023-07-08T00:17:34;24.06;42.55
9723;DHT22;4900;49.306;8.500;2023-07-08T00:19:59;23.99;42.78
9723;DHT22;4900;49.306;8.500;2023-07-08T00:22:24;23.98;42.79
9723;DHT22;4900;49.306;8.500;2023-07-08T00:24:50;23.92;42.77
9723;DHT22;4900;49.306;8.500;2023-07-08T00:27:16;23.92;42.58
9723;DHT22;4900;49.306;8.500;2023-07-08T00:29:42;23.89;42.57
9723;DHT22;4900;49.306;8.500;2023-07-08T00:32:13;23.81;42.73
9723;DHT22;4900;49.306;8.500;2023-07-08T00:34:39;23.78;42.57
9723;DHT22;4900;49.306;8.500;2023-07-08T00:37:04;23.77;42.70
9723;DHT22;4900;49.306;8.500;2023-07-08T00:39:31;23.71;42.92
9723;DHT22;4900;49.306;8.500;2023-07-08T00:41:59;23.65;43.05
9723;DHT22;4900;49.306;8.500;2023-07-08T00:44:25;23.57;43.04
9723;DHT22;4900;49.306;8.500;2023-07-08T00:47:00;23.51;43.22
9723;DHT22;4900;49.306;8.500;2023-07-08T00:52:22;23.41;43.69
9723;DHT22;4900;49.306;8.500;2023-07-08T00:54:59;23.33;43.60
9723;DHT22;4900;49.306;8.500;2023-07-08T00:57:30;23.30;43.57
9723;DHT22;4900;49.306;8.500;2023-07-08T01:00:04;23.23;43.77
9723;DHT22;4900;49.306;8.500;2023-07-08T01:02:31;23.19;43.78
9723;DHT22;4900;49.306;8.500;2023-07-08T01:05:06;23.15;44.01
9723;DHT22;4900;49.306;8.500;2023-07-08T01:07:36;23.13;43.95
9723;DHT22;4900;49.306;8.500;2023-07-08T01:10:06;23.12;43.93
9723;DHT22;4900;49.306;8.500;2023-07-08T01:12:41;23.07;44.21
9723;DHT22;4900;49.306;8.500;2023-07-08T01:15:07;23.03;44.14
9723;DHT22;4900;49.306;8.500;2023-07-08T01:17:33;23.02;44.24
9723;DHT22;4900;49.306;8.500;2023-07-08T01:20:00;22.96;44.33
9723;DHT22;4900;49.306;8.500;2023-07-08T01:22:29;22.92;44.45
9723;DHT22;4900;49.306;8.500;2023-07-08T01:24:58;22.89;44.58
9723;DHT22;4900;49.306;8.500;2023-07-08T01:27:29;22.85;44.71
9723;DHT22;4900;49.306;8.500;2023-07-08T01:29:55;22.83;44.81
9723;DHT22;4900;49.306;8.500;2023-07-08T01:32:21;22.82;44.85
9723;DHT22;4900;49.306;8.500;2023-07-08T01:34:46;22.81;44.99
9723;DHT22;4900;49.306;8.500;2023-07-08T01:37:36;22.75;45.12
9723;DHT22;4900;49.306;8.500;2023-07-08T01:42:46;22.73;45.41
9723;DHT22;4900;49.306;8.500;2023-07-08T01:45:15;22.67;45.64
9723;DHT22;4900;49.306;8.500;2023-07-08T01:47:41;22.61;46.24
9723;DHT22;4900;49.306;8.500;2023-07-08T01:50:09;22.57;46.24
9723;DHT22;4900;49.306;8.500;2023-07-08T01:52:35;22.53;46.35
9723;DHT22;4900;49.306;8.500;2023-07-08T01:55:01;22.45;46.48
9723;DHT22;4900;49.306;8.500;2023-07-08T01:57:26;22.43;46.91
9723;DHT22;4900;49.306;8.500;2023-07-08T01:59:52;22.38;47.06
9723;DHT22;4900;49.306;8.500;2023-07-08T02:02:17;22.31;47.22
9723;DHT22;4900;49.306;8.500;2023-07-08T02:04:43;22.23;47.48
9723;DHT22;4900;49.306;8.500;2023-07-08T02:07:08;22.17;47.62
9723;DHT22;4900;49.306;8.500;2023-07-08T02:09:34;22.13;47.69
9723;DHT22;4900;49.306;8.500;2023-07-08T02:11:59;22.09;47.92
9723;DHT22;4900;49.306;8.500;2023-07-08T02:14:24;22.02;47.97
9723;DHT22;4900;49.306;8.500;2023-07-08T02:16:51;21.99;47.93
9723;DHT22;4900;49.306;8.500;2023-07-08T02:19:17;21.92;47.95
9723;DHT22;4900;49.306;8.500;2023-07-08T02:21:43;21.89;48.05
9723;DHT22;4900;49.306;8.500;2023-07-08T02:24:08;21.83;48.22
9723;DHT22;4900;49.306;8.500;2023-07-08T02:26:33;21.82;48.25
9723;DHT22;4900;49.306;8.500;2023-07-08T02:28:59;21.78;48.26
9723;DHT22;4900;49.306;8.500;2023-07-08T02:31:25;21.76;48.28
9723;DHT22;4900;49.306;8.500;2023-07-08T02:33:51;21.71;48.35
9723;DHT22;4900;49.306;8.500;2023-07-08T02:36:18;21.68;48.16
9723;DHT22;4900;49.306;8.500;2023-07-08T02:38:43;21.62;48.37
9723;DHT22;4900;49.306;8.500;2023-07-08T02:41:09;21.61;48.45
9723;DHT22;4900;49.306;8.500;2023-07-08T02:43:34;21.57;48.59
9723;DHT22;4900;49.306;8.500;2023-07-08T02:46:00;21.51;48.79
9723;DHT22;4900;49.306;8.500;2023-07-08T02:48:25;21.48;48.85
9723;DHT22;4900;49.306;8.500;2023-07-08T02:50:51;21.46;48.83
9723;DHT22;4900;49.306;8.500;2023-07-08T02:53:16;21.44;48.75
9723;DHT22;4900;49.306;8.500;2023-07-08T02:55:41;21.46;48.64
9723;DHT22;4900;49.306;8.500;2023-07-08T02:58:08;21.43;48.28
9723;DHT22;4900;49.306;8.500;2023-07-08T03:00:34;21.46;47.99
9723;DHT22;4900;49.306;8.500;2023-07-08T03:03:03;21.48;47.91
9723;DHT22;4900;49.306;8.500;2023-07-08T03:05:29;21.50;47.88
9723;DHT22;4900;49.306;8.500;2023-07-08T03:07:56;21.48;47.89
9723;DHT22;4900;49.306;8.500;2023-07-08T03:10:21;21.44;47.89
9723;DHT22;4900;49.306;8.500;2023-07-08T03:12:47;21.43;48.04
9723;DHT22;4900;49.306;8.500;2023-07-08T03:15:12;21.44;48.30
9723;DHT22;4900;49.306;8.500;2023-07-08T03:17:38;21.40;48.61
9723;DHT22;4900;49.306;8.500;2023-07-08T03:20:04;21.38;48.78
9723;DHT22;4900;49.306;8.500;2023-07-08T03:22:31;21.36;48.93
9723;DHT22;4900;49.306;8.500;2023-07-08T03:24:56;21.37;48.91
9723;DHT22;4900;49.306;8.500;2023-07-08T03:27:23;21.34;48.94
9723;DHT22;4900;49.306;8.500;2023-07-08T03:29:48;21.37;48.83
9723;DHT22;4900;49.306;8.500;2023-07-08T03:32:13;21.40;48.59
9723;DHT22;4900;49.306;8.500;2023-07-08T03:34:39;21.38;47.99
9723;DHT22;4900;49.306;8.500;2023-07-08T03:37:04;21.37;47.47
9723;DHT22;4900;49.306;8.500;2023-07-08T03:39:30;21.43;47.21
9723;DHT22;4900;49.306;8.500;2023-07-08T03:41:57;21.46;47.09
9723;DHT22;4900;49.306;8.500;2023-07-08T03:44:23;21.47;46.77
9723;DHT22;4900;49.306;8.500;2023-07-08T03:46:49;21.53;46.56
9723;DHT22;4900;49.306;8.500;2023-07-08T03:49:16;21.55;46.26
9723;DHT22;4900;49.306;8.500;2023-07-08T03:51:43;21.55;45.99
9723;DHT22;4900;49.306;8.500;2023-07-08T03:54:11;21.59;45.83
9723;DHT22;4900;49.306;8.500;2023-07-08T03:56:36;21.64;45.80
9723;DHT22;4900;49.306;8.500;2023-07-08T03:59:02;21.64;45.75
9723;DHT22;4900;49.306;8.500;2023-07-08T04:01:27;21.68;45.69
9723;DHT22;4900;49.306;8.500;2023-07-08T04:03:55;21.68;45.34
9723;DHT22;4900;49.306;8.500;2023-07-08T04:06:21;21.71;45.01
9723;DHT22;4900;49.306;8.500;2023-07-08T04:08:46;21.75;44.83
9723;DHT22;4900;49.306;8.500;2023-07-08T04:11:14;21.78;44.69
9723;DHT22;4900;49.306;8.500;2023-07-08T04:13:39;21.83;44.38
9723;DHT22;4900;49.306;8.500;2023-07-08T04:16:05;21.88;44.25
9723;DHT22;4900;49.306;8.500;2023-07-08T04:18:32;21.91;44.21
9723;DHT22;4900;49.306;8.500;2023-07-08T04:20:58;21.95;44.09
9723;DHT22;4900;49.306;8.500;2023-07-08T04:23:24;22.03;44.02
9723;DHT22;4900;49.306;8.500;2023-07-08T04:25:52;22.06;44.02
9723;DHT22;4900;49.306;8.500;2023-07-08T04:28:20;22.17;43.81
9723;DHT22;4900;49.306;8.500;2023-07-08T04:30:47;22.23;43.57
9723;DHT22;4900;49.306;8.500;2023-07-08T04:33:14;22.33;43.31
9723;DHT22;4900;49.306;8.500;2023-07-08T04:35:41;22.45;42.95
9723;DHT22;4900;49.306;8.500;2023-07-08T04:38:17;22.60;42.90
9723;DHT22;4900;49.306;8.500;2023-07-08T04:40:43;22.68;42.60
9723;DHT22;4900;49.306;8.500;2023-07-08T04:43:09;22.75;42.19
9723;DHT22;4900;49.306;8.500;2023-07-08T04:45:39;22.90;41.92
9723;DHT22;4900;49.306;8.500;2023-07-08T04:48:05;23.04;41.54
9723;DHT22;4900;49.306;8.500;2023-07-08T04:50:47;23.22;41.24
9723;DHT22;4900;49.306;8.500;2023-07-08T04:53:13;23.33;40.94
9723;DHT22;4900;49.306;8.500;2023-07-08T04:55:45;23.51;40.78
9723;DHT22;4900;49.306;8.500;2023-07-08T04:58:11;23.69;40.55
9723;DHT22;4900;49.306;8.500;2023-07-08T05:00:37;23.88;40.18
9723;DHT22;4900;49.306;8.500;2023-07-08T05:03:02;24.03;39.93
9723;DHT22;4900;49.306;8.500;2023-07-08T05:05:28;24.23;39.58
9723;DHT22;4900;49.306;8.500;2023-07-08T05:07:53;24.50;39.26
9723;DHT22;4900;49.306;8.500;2023-07-08T05:10:19;24.78;38.89
9723;DHT22;4900;49.306;8.500;2023-07-08T05:12:45;25.03;38.54
9723;DHT22;4900;49.306;8.500;2023-07-08T05:15:11;25.31;38.21
9723;DHT22;4900;49.306;8.500;2023-07-08T05:17:38;25.64;37.90
9723;DHT22;4900;49.306;8.500;2023-07-08T05:20:06;25.84;37.47
9723;DHT22;4900;49.306;8.500;2023-07-08T05:22:33;26.05;37.20
9723;DHT22;4900;49.306;8.500;2023-07-08T05:24:58;26.17;36.78
9723;DHT22;4900;49.306;8.500;2023-07-08T05:27:24;26.29;36.68
9723;DHT22;4900;49.306;8.500;2023-07-08T05:29:50;26.31;36.47
9723;DHT22;4900;49.306;8.500;2023-07-08T05:32:17;26.34;36.45
9723;DHT22;4900;49.306;8.500;2023-07-08T05:34:43;26.22;36.50
9723;DHT22;4900;49.306;8.500;2023-07-08T05:37:10;26.13;36.52
9723;DHT22;4900;49.306;8.500;2023-07-08T05:39:36;26.10;36.65
9723;DHT22;4900;49.306;8.500;2023-07-08T05:42:01;26.09;36.77
9723;DHT22;4900;49.306;8.500;2023-07-08T05:44:27;26.06;36.81
9723;DHT22;4900;49.306;8.500;2023-07-08T05:46:52;26.03;37.17
9723;DHT22;4900;49.306;8.500;2023-07-08T05:49:18;25.93;37.71
9723;DHT22;4900;49.306;8.500;2023-07-08T05:51:44;25.78;37.93
9723;DHT22;4900;49.306;8.500;2023-07-08T05:54:10;25.62;38.35
9723;DHT22;4900;49.306;8.500;2023-07-08T05:56:36;25.58;38.76
9723;DHT22;4900;49.306;8.500;2023-07-08T05:59:01;25.54;39.06
9723;DHT22;4900;49.306;8.500;2023-07-08T06:01:27;25.51;39.17
9723;DHT22;4900;49.306;8.500;2023-07-08T06:03:53;25.53;39.42
9723;DHT22;4900;49.306;8.500;2023-07-08T06:06:18;25.51;39.42
9723;DHT22;4900;49.306;8.500;2023-07-08T06:08:43;25.54;39.55
9723;DHT22;4900;49.306;8.500;2023-07-08T06:11:09;25.54;40.47
9723;DHT22;4900;49.306;8.500;2023-07-08T06:13:34;25.53;41.23
9723;DHT22;4900;49.306;8.500;2023-07-08T06:16:00;25.47;42.09
9723;DHT22;4900;49.306;8.500;2023-07-08T06:18:25;25.44;42.51
9723;DHT22;4900;49.306;8.500;2023-07-08T06:20:54;25.41;42.65
9723;DHT22;4900;49.306;8.500;2023-07-08T06:23:21;25.37;42.89
9723;DHT22;4900;49.306;8.500;2023-07-08T06:25:46;25.44;42.74
9723;DHT22;4900;49.306;8.500;2023-07-08T06:28:12;25.48;42.45
9723;DHT22;4900;49.306;8.500;2023-07-08T06:30:37;25.57;42.19
9723;DHT22;4900;49.306;8.500;2023-07-08T06:33:03;25.72;41.91
9723;DHT22;4900;49.306;8.500;2023-07-08T06:35:29;25.89;41.77
9723;DHT22;4900;49.306;8.500;2023-07-08T06:37:54;26.06;41.41
9723;DHT22;4900;49.306;8.500;2023-07-08T06:40:20;26.52;40.58
9723;DHT22;4900;49.306;8.500;2023-07-08T06:42:45;27.10;39.48
9723;DHT22;4900;49.306;8.500;2023-07-08T06:45:11;27.82;38.67
9723;DHT22;4900;49.306;8.500;2023-07-08T06:47:36;28.54;37.51
9723;DHT22;4900;49.306;8.500;2023-07-08T06:50:02;29.41;36.46
9723;DHT22;4900;49.306;8.500;2023-07-08T06:52:28;30.34;35.17
9723;DHT22;4900;49.306;8.500;2023-07-08T06:55:04;30.50;34.54
9723;DHT22;4900;49.306;8.500;2023-07-08T06:57:29;30.47;34.63
9723;DHT22;4900;49.306;8.500;2023-07-08T06:59:55;31.02;34.21
9723;DHT22;4900;49.306;8.500;2023-07-08T07:02:20;31.09;34.10
9723;DHT22;4900;49.306;8.500;2023-07-08T07:04:46;31.43;33.77
9723;DHT22;4900;49.306;8.500;2023-07-08T07:07:12;31.88;33.39
9723;DHT22;4900;49.306;8.500;2023-07-08T07:09:37;32.58;32.88
9723;DHT22;4900;49.306;8.500;2023-07-08T07:12:04;33.06;32.44
9723;DHT22;4900;49.306;8.500;2023-07-08T07:14:30;33.33;32.65
9723;DHT22;4900;49.306;8.500;2023-07-08T07:16:55;33.87;32.28
9723;DHT22;4900;49.306;8.500;2023-07-08T07:19:21;34.32;31.99
9723;DHT22;4900;49.306;8.500;2023-07-08T07:21:47;34.49;31.90
9723;DHT22;4900;49.306;8.500;2023-07-08T07:24:12;34.92;31.46
9723;DHT22;4900;49.306;8.500;2023-07-08T07:26:38;34.97;31.62
9723;DHT22;4900;49.306;8.500;2023-07-08T07:29:03;34.76;32.24
9723;DHT22;4900;49.306;8.500;2023-07-08T07:31:29;35.24;31.73
9723;DHT22;4900;49.306;8.500;2023-07-08T07:33:56;35.67;31.25
9723;DHT22;4900;49.306;8.500;2023-07-08T07:36:21;35.94;31.14
9723;DHT22;4900;49.306;8.500;2023-07-08T07:38:46;36.42;30.61
9723;DHT22;4900;49.306;8.500;2023-07-08T07:41:12;36.97;30.15
9723;DHT22;4900;49.306;8.500;2023-07-08T07:43:38;37.10;29.84
9723;DHT22;4900;49.306;8.500;2023-07-08T07:46:03;36.79;30.27
9723;DHT22;4900;49.306;8.500;2023-07-08T07:48:31;36.56;30.61
9723;DHT22;4900;49.306;8.500;2023-07-08T07:50:57;36.17;31.07
9723;DHT22;4900;49.306;8.500;2023-07-08T07:53:23;36.73;30.52
9723;DHT22;4900;49.306;8.500;2023-07-08T07:55:56;36.59;30.67
9723;DHT22;4900;49.306;8.500;2023-07-08T07:58:21;36.45;30.84
9723;DHT22;4900;49.306;8.500;2023-07-08T08:00:47;36.20;31.16
9723;DHT22;4900;49.306;8.500;2023-07-08T08:03:12;35.98;31.66
9723;DHT22;4900;49.306;8.500;2023-07-08T08:05:38;36.38;31.33
9723;DHT22;4900;49.306;8.500;2023-07-08T08:08:03;36.49;31.16
9723;DHT22;4900;49.306;8.500;2023-07-08T08:10:29;36.62;31.01
9723;DHT22;4900;49.306;8.500;2023-07-08T08:12:56;36.59;30.95
9723;DHT22;4900;49.306;8.500;2023-07-08T08:15:22;36.25;31.28
9723;DHT22;4900;49.306;8.500;2023-07-08T08:17:47;36.24;31.42
9723;DHT22;4900;49.306;8.500;2023-07-08T08:20:14;35.32;32.69
9723;DHT22;4900;49.306;8.500;2023-07-08T08:22:40;35.29;32.88
9723;DHT22;4900;49.306;8.500;2023-07-08T08:25:05;34.84;33.68
9723;DHT22;4900;49.306;8.500;2023-07-08T08:27:31;35.43;33.06
9723;DHT22;4900;49.306;8.500;2023-07-08T08:29:57;36.38;32.08
9723;DHT22;4900;49.306;8.500;2023-07-08T08:32:22;36.93;31.05
9723;DHT22;4900;49.306;8.500;2023-07-08T08:34:48;36.97;30.96
9723;DHT22;4900;49.306;8.500;2023-07-08T08:37:14;37.13;30.99
9723;DHT22;4900;49.306;8.500;2023-07-08T08:39:39;37.56;30.83
9723;DHT22;4900;49.306;8.500;2023-07-08T08:42:21;37.99;30.37
9723;DHT22;4900;49.306;8.500;2023-07-08T08:44:48;38.78;29.60
9723;DHT22;4900;49.306;8.500;2023-07-08T08:49:55;39.78;28.35
9723;DHT22;4900;49.306;8.500;2023-07-08T08:52:21;39.76;28.23
9723;DHT22;4900;49.306;8.500;2023-07-08T08:54:46;40.20;28.03
9723;DHT22;4900;49.306;8.500;2023-07-08T08:57:37;40.71;27.44
9723;DHT22;4900;49.306;8.500;2023-07-08T09:00:08;40.88;27.12
9723;DHT22;4900;49.306;8.500;2023-07-08T09:05:08;41.67;26.74
9723;DHT22;4900;49.306;8.500;2023-07-08T09:10:51;41.75;26.37
9723;DHT22;4900;49.306;8.500;2023-07-08T09:13:30;41.91;26.24
9723;DHT22;4900;49.306;8.500;2023-07-08T09:18:59;42.11;25.84
9723;DHT22;4900;49.306;8.500;2023-07-08T09:21:31;42.22;25.86
9723;DHT22;4900;49.306;8.500;2023-07-08T09:24:01;41.99;26.02
9723;DHT22;4900;49.306;8.500;2023-07-08T09:26:30;42.20;25.86
9723;DHT22;4900;49.306;8.500;2023-07-08T09:28:57;42.08;25.91
9723;DHT22;4900;49.306;8.500;2023-07-08T09:31:25;41.98;25.83
9723;DHT22;4900;49.306;8.500;2023-07-08T09:33:53;41.57;26.14
9723;DHT22;4900;49.306;8.500;2023-07-08T09:36:28;41.91;25.85
9723;DHT22;4900;49.306;8.500;2023-07-08T09:38:53;41.61;26.14
9723;DHT22;4900;49.306;8.500;2023-07-08T09:41:39;41.96;25.86
9723;DHT22;4900;49.306;8.500;2023-07-08T09:44:23;42.23;25.67
9723;DHT22;4900;49.306;8.500;2023-07-08T09:46:52;42.67;25.54
9723;DHT22;4900;49.306;8.500;2023-07-08T09:49:22;42.95;25.40
9723;DHT22;4900;49.306;8.500;2023-07-08T09:51:49;43.39;25.06
9723;DHT22;4900;49.306;8.500;2023-07-08T09:54:17;43.53;24.68
9723;DHT22;4900;49.306;8.500;2023-07-08T09:56:45;43.81;24.24
9723;DHT22;4900;49.306;8.500;2023-07-08T09:59:14;43.87;24.24
9723;DHT22;4900;49.306;8.500;2023-07-08T10:01:41;43.80;24.06
9723;DHT22;4900;49.306;8.500;2023-07-08T10:04:07;44.11;23.83
9723;DHT22;4900;49.306;8.500;2023-07-08T10:06:34;44.04;23.97
9723;DHT22;4900;49.306;8.500;2023-07-08T10:09:05;44.64;23.47
9723;DHT22;4900;49.306;8.500;2023-07-08T10:11:42;45.14;23.10
9723;DHT22;4900;49.306;8.500;2023-07-08T10:14:24;44.95;22.96
9723;DHT22;4900;49.306;8.500;2023-07-08T10:16:51;45.31;22.54
9723;DHT22;4900;49.306;8.500;2023-07-08T10:19:18;45.76;22.23
9723;DHT22;4900;49.306;8.500;2023-07-08T10:28:03;46.41;21.67
9723;DHT22;4900;49.306;8.500;2023-07-08T10:30:53;46.73;21.37
9723;DHT22;4900;49.306;8.500;2023-07-08T10:36:10;46.77;21.15
9723;DHT22;4900;49.306;8.500;2023-07-08T10:39:06;47.03;20.98
9723;DHT22;4900;49.306;8.500;2023-07-08T10:44:24;46.90;20.86
9723;DHT22;4900;49.306;8.500;2023-07-08T10:49:53;47.39;20.69
9723;DHT22;4900;49.306;8.500;2023-07-08T11:00:28;47.44;20.55
9723;DHT22;4900;49.306;8.500;2023-07-08T11:06:26;48.09;20.69
9723;DHT22;4900;49.306;8.500;2023-07-08T11:08:57;48.13;20.77
9723;DHT22;4900;49.306;8.500;2023-07-08T11:11:27;48.30;20.60
9723;DHT22;4900;49.306;8.500;2023-07-08T11:14:15;48.57;20.58
9723;DHT22;4900;49.306;8.500;2023-07-08T11:16:52;48.75;20.40
9723;DHT22;4900;49.306;8.500;2023-07-08T11:19:38;48.65;20.80
9723;DHT22;4900;49.306;8.500;2023-07-08T11:22:10;48.78;21.02
9723;DHT22;4900;49.306;8.500;2023-07-08T11:24:49;49.06;20.74
9723;DHT22;4900;49.306;8.500;2023-07-08T11:27:18;48.12;21.62
9723;DHT22;4900;49.306;8.500;2023-07-08T11:29:53;47.02;21.36
9723;DHT22;4900;49.306;8.500;2023-07-08T11:32:22;47.20;21.29
9723;DHT22;4900;49.306;8.500;2023-07-08T11:34:50;46.92;22.05
9723;DHT22;4900;49.306;8.500;2023-07-08T11:37:18;46.70;21.62
9723;DHT22;4900;49.306;8.500;2023-07-08T11:39:46;46.13;21.89
9723;DHT22;4900;49.306;8.500;2023-07-08T11:42:44;45.64;22.27
9723;DHT22;4900;49.306;8.500;2023-07-08T11:47:50;45.68;22.19
9723;DHT22;4900;49.306;8.500;2023-07-08T11:52:54;45.48;21.98
9723;DHT22;4900;49.306;8.500;2023-07-08T11:55:23;45.46;22.21
9723;DHT22;4900;49.306;8.500;2023-07-08T11:57:54;45.66;21.99
9723;DHT22;4900;49.306;8.500;2023-07-08T12:00:24;45.81;21.82
9723;DHT22;4900;49.306;8.500;2023-07-08T12:02:54;45.66;21.94
9723;DHT22;4900;49.306;8.500;2023-07-08T12:05:30;45.89;21.76
9723;DHT22;4900;49.306;8.500;2023-07-08T12:07:57;45.28;22.08
9723;DHT22;4900;49.306;8.500;2023-07-08T12:10:36;45.63;21.86
9723;DHT22;4900;49.306;8.500;2023-07-08T12:13:11;45.76;21.38
9723;DHT22;4900;49.306;8.500;2023-07-08T12:15:38;46.10;21.50
9723;DHT22;4900;49.306;8.500;2023-07-08T12:18:21;46.00;21.61
9723;DHT22;4900;49.306;8.500;2023-07-08T12:21:00;45.73;21.41
9723;DHT22;4900;49.306;8.500;2023-07-08T12:23:27;45.96;21.68
9723;DHT22;4900;49.306;8.500;2023-07-08T12:25:53;46.25;21.47
9723;DHT22;4900;49.306;8.500;2023-07-08T12:28:21;46.58;21.59
9723;DHT22;4900;49.306;8.500;2023-07-08T12:30:47;46.07;21.42
9723;DHT22;4900;49.306;8.500;2023-07-08T12:33:21;47.11;20.56
9723;DHT22;4900;49.306;8.500;2023-07-08T12:35:47;46.42;20.93
9723;DHT22;4900;49.306;8.500;2023-07-08T12:38:35;46.83;20.61
9723;DHT22;4900;49.306;8.500;2023-07-08T12:41:01;47.34;20.72
9723;DHT22;4900;49.306;8.500;2023-07-08T12:43:27;47.83;20.51
9723;DHT22;4900;49.306;8.500;2023-07-08T12:45:52;48.00;20.13
9723;DHT22;4900;49.306;8.500;2023-07-08T12:48:18;47.76;20.23
9723;DHT22;4900;49.306;8.500;2023-07-08T12:50:44;47.78;19.75
9723;DHT22;4900;49.306;8.500;2023-07-08T12:53:12;47.75;19.65
9723;DHT22;4900;49.306;8.500;2023-07-08T12:55:43;47.99;19.58
9723;DHT22;4900;49.306;8.500;2023-07-08T12:58:14;47.90;19.43
9723;DHT22;4900;49.306;8.500;2023-07-08T13:00:41;48.27;19.74
9723;DHT22;4900;49.306;8.500;2023-07-08T13:03:16;47.88;19.84
9723;DHT22;4900;49.306;8.500;2023-07-08T13:05:43;47.97;19.50
9723;DHT22;4900;49.306;8.500;2023-07-08T13:08:17;47.71;19.65
9723;DHT22;4900;49.306;8.500;2023-07-08T13:10:44;47.97;19.12
9723;DHT22;4900;49.306;8.500;2023-07-08T13:13:36;48.27;19.14
9723;DHT22;4900;49.306;8.500;2023-07-08T13:16:04;48.47;19.31
9723;DHT22;4900;49.306;8.500;2023-07-08T13:18:35;48.15;19.29
9723;DHT22;4900;49.306;8.500;2023-07-08T13:21:02;48.31;19.32
9723;DHT22;4900;49.306;8.500;2023-07-08T13:23:28;47.82;19.16
9723;DHT22;4900;49.306;8.500;2023-07-08T13:25:54;47.71;19.06
9723;DHT22;4900;49.306;8.500;2023-07-08T13:28:43;48.20;18.93
9723;DHT22;4900;49.306;8.500;2023-07-08T13:31:19;48.31;18.88
9723;DHT22;4900;49.306;8.500;2023-07-08T13:33:49;48.21;18.96
9723;DHT22;4900;49.306;8.500;2023-07-08T13:36:18;48.85;18.66
9723;DHT22;4900;49.306;8.500;2023-07-08T13:38:44;48.76;18.85
9723;DHT22;4900;49.306;8.500;2023-07-08T13:41:10;48.76;19.00
9723;DHT22;4900;49.306;8.500;2023-07-08T13:43:39;48.51;18.77
9723;DHT22;4900;49.306;8.500;2023-07-08T13:46:24;48.68;18.36
9723;DHT22;4900;49.306;8.500;2023-07-08T13:48:51;49.09;18.79
9723;DHT22;4900;49.306;8.500;2023-07-08T13:51:20;49.10;18.03
9723;DHT22;4900;49.306;8.500;2023-07-08T13:53:51;49.21;17.38
9723;DHT22;4900;49.306;8.500;2023-07-08T13:56:25;49.19;17.17
9723;DHT22;4900;49.306;8.500;2023-07-08T13:58:53;49.43;17.46
9723;DHT22;4900;49.306;8.500;2023-07-08T14:01:25;49.67;17.44
9723;DHT22;4900;49.306;8.500;2023-07-08T14:03:53;49.34;17.47
9723;DHT22;4900;49.306;8.500;2023-07-08T14:06:24;49.67;17.09
9723;DHT22;4900;49.306;8.500;2023-07-08T14:08:56;49.82;16.65
9723;DHT22;4900;49.306;8.500;2023-07-08T14:11:22;50.11;16.63
9723;DHT22;4900;49.306;8.500;2023-07-08T14:13:47;49.81;16.65
9723;DHT22;4900;49.306;8.500;2023-07-08T14:16:23;49.51;16.48
9723;DHT22;4900;49.306;8.500;2023-07-08T14:18:50;50.04;16.60
9723;DHT22;4900;49.306;8.500;2023-07-08T14:21:15;50.09;17.00
9723;DHT22;4900;49.306;8.500;2023-07-08T14:23:41;49.58;16.61
9723;DHT22;4900;49.306;8.500;2023-07-08T14:26:10;49.86;16.30
9723;DHT22;4900;49.306;8.500;2023-07-08T14:28:36;49.26;16.40
9723;DHT22;4900;49.306;8.500;2023-07-08T14:31:01;49.58;16.43
9723;DHT22;4900;49.306;8.500;2023-07-08T14:33:26;49.22;16.72
9723;DHT22;4900;49.306;8.500;2023-07-08T14:35:52;49.17;16.74
9723;DHT22;4900;49.306;8.500;2023-07-08T14:38:17;48.33;16.92
9723;DHT22;4900;49.306;8.500;2023-07-08T14:40:43;48.81;17.05
9723;DHT22;4900;49.306;8.500;2023-07-08T14:43:28;49.40;17.21
9723;DHT22;4900;49.306;8.500;2023-07-08T14:45:57;49.12;17.03
9723;DHT22;4900;49.306;8.500;2023-07-08T14:48:24;48.64;16.78
9723;DHT22;4900;49.306;8.500;2023-07-08T14:50:50;48.75;16.88
9723;DHT22;4900;49.306;8.500;2023-07-08T14:53:17;48.96;16.94
9723;DHT22;4900;49.306;8.500;2023-07-08T14:55:45;48.51;16.93
9723;DHT22;4900;49.306;8.500;2023-07-08T14:58:22;48.78;16.88
9723;DHT22;4900;49.306;8.500;2023-07-08T15:00:50;48.16;16.80
9723;DHT22;4900;49.306;8.500;2023-07-08T15:03:16;48.96;17.02
9723;DHT22;4900;49.306;8.500;2023-07-08T15:05:41;48.67;17.14
9723;DHT22;4900;49.306;8.500;2023-07-08T15:08:08;48.84;17.17
9723;DHT22;4900;49.306;8.500;2023-07-08T15:10:35;48.91;17.24
9723;DHT22;4900;49.306;8.500;2023-07-08T15:13:01;49.29;17.16
9723;DHT22;4900;49.306;8.500;2023-07-08T15:15:32;49.21;16.87
9723;DHT22;4900;49.306;8.500;2023-07-08T15:17:58;48.74;16.96
9723;DHT22;4900;49.306;8.500;2023-07-08T15:20:25;48.81;16.98
9723;DHT22;4900;49.306;8.500;2023-07-08T15:22:50;48.55;17.39
9723;DHT22;4900;49.306;8.500;2023-07-08T15:25:16;48.46;17.21
9723;DHT22;4900;49.306;8.500;2023-07-08T15:27:44;48.50;17.39
9723;DHT22;4900;49.306;8.500;2023-07-08T15:30:20;48.55;17.26
9723;DHT22;4900;49.306;8.500;2023-07-08T15:32:46;49.13;16.77
9723;DHT22;4900;49.306;8.500;2023-07-08T15:35:17;49.13;17.00
9723;DHT22;4900;49.306;8.500;2023-07-08T15:37:43;49.23;16.97
9723;DHT22;4900;49.306;8.500;2023-07-08T15:40:12;48.81;17.00
9723;DHT22;4900;49.306;8.500;2023-07-08T15:42:39;49.01;16.81
9723;DHT22;4900;49.306;8.500;2023-07-08T15:45:25;48.78;17.00
9723;DHT22;4900;49.306;8.500;2023-07-08T15:47:51;48.02;16.96
9723;DHT22;4900;49.306;8.500;2023-07-08T15:50:19;47.61;16.72
9723;DHT22;4900;49.306;8.500;2023-07-08T15:52:45;47.90;16.95
9723;DHT22;4900;49.306;8.500;2023-07-08T15:55:12;47.89;16.93
9723;DHT22;4900;49.306;8.500;2023-07-08T15:57:50;47.97;17.06
9723;DHT22;4900;49.306;8.500;2023-07-08T16:00:20;48.23;17.00
9723;DHT22;4900;49.306;8.500;2023-07-08T16:02:48;47.59;16.94
9723;DHT22;4900;49.306;8.500;2023-07-08T16:05:15;47.62;16.89
9723;DHT22;4900;49.306;8.500;2023-07-08T16:07:41;47.69;16.94
9723;DHT22;4900;49.306;8.500;2023-07-08T16:10:07;47.92;17.03
9723;DHT22;4900;49.306;8.500;2023-07-08T16:12:33;47.83;16.67
9723;DHT22;4900;49.306;8.500;2023-07-08T16:14:58;47.64;16.58
9723;DHT22;4900;49.306;8.500;2023-07-08T16:17:23;47.75;16.58
9723;DHT22;4900;49.306;8.500;2023-07-08T16:19:49;47.62;16.66
9723;DHT22;4900;49.306;8.500;2023-07-08T16:22:14;47.75;16.76
9723;DHT22;4900;49.306;8.500;2023-07-08T16:24:40;47.75;16.71
9723;DHT22;4900;49.306;8.500;2023-07-08T16:27:05;48.02;17.16
9723;DHT22;4900;49.306;8.500;2023-07-08T16:29:31;48.03;17.24
9723;DHT22;4900;49.306;8.500;2023-07-08T16:31:57;47.52;17.16
9723;DHT22;4900;49.306;8.500;2023-07-08T16:34:23;47.47;17.32
9723;DHT22;4900;49.306;8.500;2023-07-08T16:36:49;47.38;17.28
9723;DHT22;4900;49.306;8.500;2023-07-08T16:39:14;47.20;17.31
9723;DHT22;4900;49.306;8.500;2023-07-08T16:41:40;47.03;17.53
9723;DHT22;4900;49.306;8.500;2023-07-08T16:44:15;47.03;17.78
9723;DHT22;4900;49.306;8.500;2023-07-08T16:46:42;46.82;18.16
9723;DHT22;4900;49.306;8.500;2023-07-08T16:49:08;46.49;18.16
9723;DHT22;4900;49.306;8.500;2023-07-08T16:51:35;46.51;18.14
9723;DHT22;4900;49.306;8.500;2023-07-08T16:54:09;46.27;18.11
9723;DHT22;4900;49.306;8.500;2023-07-08T16:56:35;45.74;18.38
9723;DHT22;4900;49.306;8.500;2023-07-08T16:59:01;45.70;18.22